createdAt,value
2022-08-18T00:00:11.010Z,97.30
2022-08-18T00:03:27.273Z,97.50
2022-08-18T00:05:55.939Z,97.70
2022-08-18T00:08:23.165Z,97.80
2022-08-18T00:10:50.384Z,97.80
2022-08-18T00:13:18.267Z,97.90
2022-08-18T00:15:49.212Z,97.90
2022-08-18T00:18:17.145Z,97.90
2022-08-18T00:20:44.640Z,97.70
2022-08-18T00:23:13.428Z,97.80
2022-08-18T00:25:40.694Z,97.90
2022-08-18T00:28:07.863Z,98.00
2022-08-18T00:30:35.124Z,98.20
2022-08-18T00:33:04.135Z,98.10
2022-08-18T00:35:37.739Z,98.10
2022-08-18T00:38:08.362Z,98.30
2022-08-18T00:40:52.436Z,98.20
2022-08-18T00:43:37.258Z,98.40
2022-08-18T00:46:16.438Z,98.20
2022-08-18T00:48:48.851Z,98.20
2022-08-18T00:51:43.327Z,98.20
2022-08-18T00:54:24.009Z,98.20
2022-08-18T00:56:58.584Z,98.40
2022-08-18T00:59:49.353Z,98.50
2022-08-18T01:02:48.201Z,98.40
2022-08-18T01:05:41.086Z,98.40
2022-08-18T01:08:14.598Z,98.50
2022-08-18T01:10:45.288Z,98.60
2022-08-18T01:13:12.675Z,98.50
2022-08-18T01:15:40.477Z,98.50
2022-08-18T01:18:31.311Z,98.50
2022-08-18T01:21:37.229Z,98.60
2022-08-18T01:24:10.185Z,98.60
2022-08-18T01:26:45.672Z,98.80
2022-08-18T01:29:18.910Z,99.20
2022-08-18T01:31:57.193Z,99.20
2022-08-18T01:34:27.505Z,99.00
2022-08-18T01:36:56.028Z,99.00
2022-08-18T01:41:23.420Z,98.90
2022-08-18T01:42:13.993Z,98.90
2022-08-18T01:44:41.859Z,98.90
2022-08-18T01:47:12.675Z,99.00
2022-08-18T01:49:43.715Z,99.10
2022-08-18T01:52:20.274Z,99.10
2022-08-18T01:54:52.105Z,99.30
2022-08-18T01:57:21.607Z,99.30
2022-08-18T01:59:48.834Z,99.40
2022-08-18T02:02:25.366Z,99.30
2022-08-18T02:05:01.557Z,99.30
2022-08-18T02:07:36.116Z,99.20
2022-08-18T02:10:11.880Z,99.20
2022-08-18T02:12:41.194Z,99.30
2022-08-18T02:15:09.952Z,99.50
2022-08-18T02:17:43.285Z,99.60
2022-08-18T02:20:15.440Z,99.90
2022-08-18T02:22:43.850Z,99.90
2022-08-18T02:25:12.900Z,99.90
2022-08-18T02:27:40.279Z,99.80
2022-08-18T02:30:12.762Z,99.90
2022-08-18T02:32:40.566Z,99.90
2022-08-18T02:35:11.666Z,99.90
2022-08-18T02:37:54.396Z,99.90
2022-08-18T02:40:21.955Z,99.90
2022-08-18T02:42:50.111Z,99.90
2022-08-18T02:45:17.405Z,99.90
2022-08-18T02:47:45.553Z,99.90
2022-08-18T02:50:13.949Z,99.90
2022-08-18T02:52:41.356Z,99.90
2022-08-18T02:55:10.304Z,99.90
2022-08-18T02:57:46.942Z,99.90
2022-08-18T03:00:19.670Z,99.90
2022-08-18T03:02:52.155Z,99.90
2022-08-18T03:05:19.925Z,99.90
2022-08-18T03:07:46.980Z,99.90
2022-08-18T03:10:33.132Z,99.90
2022-08-18T03:13:02.323Z,99.90
2022-08-18T03:15:29.698Z,99.90
2022-08-18T03:17:58.225Z,99.90
2022-08-18T03:20:30.504Z,99.90
2022-08-18T03:22:59.331Z,99.90
2022-08-18T03:25:26.589Z,99.90
2022-08-18T03:27:53.734Z,99.90
2022-08-18T03:30:20.851Z,99.90
2022-08-18T03:32:48.056Z,99.90
2022-08-18T03:35:15.205Z,99.90
2022-08-18T03:37:43.104Z,99.90
2022-08-18T03:40:11.181Z,99.90
2022-08-18T03:42:39.119Z,99.90
2022-08-18T03:45:13.419Z,99.90
2022-08-18T03:47:46.030Z,99.90
2022-08-18T03:50:14.103Z,99.90
2022-08-18T03:52:41.862Z,99.90
2022-08-18T03:55:09.465Z,99.90
2022-08-18T03:57:49.220Z,99.90
2022-08-18T04:00:17.987Z,99.90
2022-08-18T04:02:45.251Z,99.90
2022-08-18T04:05:14.094Z,99.90
2022-08-18T04:07:41.302Z,99.90
2022-08-18T04:10:19.072Z,99.90
2022-08-18T04:12:47.130Z,99.90
2022-08-18T04:15:14.498Z,99.90
2022-08-18T04:18:03.105Z,99.90
2022-08-18T04:20:29.919Z,99.90
2022-08-18T04:22:56.989Z,99.90
2022-08-18T04:25:23.989Z,99.90
2022-08-18T04:27:51.719Z,99.90
2022-08-18T04:30:19.013Z,99.90
2022-08-18T04:32:46.087Z,99.90
2022-08-18T04:35:14.259Z,99.90
2022-08-18T04:37:41.816Z,99.90
2022-08-18T04:40:10.779Z,99.90
2022-08-18T04:42:43.493Z,99.90
2022-08-18T04:45:11.045Z,99.90
2022-08-18T04:47:41.701Z,99.90
2022-08-18T04:50:11.182Z,99.90
2022-08-18T04:52:56.654Z,99.90
2022-08-18T04:55:23.994Z,99.90
2022-08-18T04:57:51.112Z,99.90
2022-08-18T05:00:19.591Z,99.90
2022-08-18T05:02:47.020Z,99.90
2022-08-18T05:05:14.122Z,99.90
2022-08-18T05:07:47.593Z,99.90
2022-08-18T05:10:17.582Z,99.90
2022-08-18T05:12:48.069Z,99.90
2022-08-18T05:15:17.707Z,99.90
2022-08-18T05:17:45.329Z,99.90
2022-08-18T05:20:16.775Z,99.90
2022-08-18T05:22:45.699Z,99.90
2022-08-18T05:25:13.415Z,99.90
2022-08-18T05:27:43.694Z,99.90
2022-08-18T05:30:15.344Z,99.90
2022-08-18T05:32:49.260Z,99.90
2022-08-18T05:35:25.054Z,99.90
2022-08-18T05:38:23.973Z,99.90
2022-08-18T05:41:27.771Z,99.90
2022-08-18T05:43:57.361Z,99.90
2022-08-18T05:46:55.085Z,99.90
2022-08-18T05:49:26.211Z,99.90
2022-08-18T05:52:06.399Z,99.90
2022-08-18T05:55:21.161Z,99.90
2022-08-18T05:58:01.918Z,99.90
2022-08-18T06:00:31.349Z,99.90
2022-08-18T06:03:22.140Z,99.90
2022-08-18T06:06:08.335Z,99.90
2022-08-18T06:08:53.948Z,99.90
2022-08-18T06:11:22.433Z,99.90
2022-08-18T06:13:57.754Z,99.90
2022-08-18T06:17:05.758Z,99.90
2022-08-18T06:19:51.376Z,99.90
2022-08-18T06:22:48.185Z,99.90
2022-08-18T06:25:55.371Z,99.90
2022-08-18T06:28:23.100Z,99.90
2022-08-18T06:31:13.771Z,99.90
2022-08-18T06:34:16.611Z,99.90
2022-08-18T06:36:58.755Z,99.90
2022-08-18T06:39:45.256Z,99.90
2022-08-18T06:42:18.010Z,99.90
2022-08-18T06:44:53.002Z,99.90
2022-08-18T06:47:37.610Z,99.90
2022-08-18T06:50:22.266Z,99.90
2022-08-18T06:53:06.989Z,99.90
2022-08-18T06:55:54.337Z,99.90
2022-08-18T06:58:30.420Z,99.90
2022-08-18T07:01:07.089Z,99.90
2022-08-18T07:03:36.924Z,99.90
2022-08-18T07:06:28.038Z,99.90
2022-08-18T07:09:24.218Z,99.90
2022-08-18T07:12:08.154Z,99.90
2022-08-18T07:14:57.555Z,99.60
2022-08-18T07:17:42.433Z,99.90
2022-08-18T07:20:25.842Z,99.70
2022-08-18T07:23:08.348Z,98.40
2022-08-18T07:25:46.758Z,99.10
2022-08-18T07:28:54.103Z,98.70
2022-08-18T07:31:49.031Z,98.70
2022-08-18T07:34:36.560Z,98.40
2022-08-18T07:37:18.561Z,98.60
2022-08-18T07:40:07.120Z,97.70
2022-08-18T07:43:01.630Z,98.30
2022-08-18T07:45:46.944Z,97.10
2022-08-18T07:48:38.145Z,97.40
2022-08-18T07:51:21.253Z,97.60
2022-08-18T07:54:02.542Z,96.80
2022-08-18T07:57:00.031Z,96.90
2022-08-18T07:59:35.347Z,96.30
2022-08-18T08:02:57.620Z,96.80
2022-08-18T08:06:04.608Z,96.60
2022-08-18T08:08:44.805Z,96.70
2022-08-18T08:11:51.277Z,96.50
2022-08-18T08:14:35.751Z,96.70
2022-08-18T08:17:19.080Z,96.00
2022-08-18T08:20:08.738Z,96.20
2022-08-18T08:22:49.349Z,96.30
2022-08-18T08:25:45.871Z,95.60
2022-08-18T08:28:55.853Z,95.60
2022-08-18T08:31:46.014Z,95.80
2022-08-18T08:34:27.141Z,95.80
2022-08-18T08:37:04.537Z,95.30
2022-08-18T08:39:59.265Z,95.40
2022-08-18T08:42:49.126Z,95.50
2022-08-18T08:45:36.951Z,94.20
2022-08-18T08:48:23.165Z,94.90
2022-08-18T08:51:43.175Z,94.20
2022-08-18T08:54:29.458Z,94.50
2022-08-18T08:57:02.442Z,93.30
2022-08-18T08:59:29.913Z,92.30
2022-08-18T09:02:37.835Z,92.90
2022-08-18T09:05:23.861Z,92.40
2022-08-18T09:08:27.007Z,93.30
2022-08-18T09:11:49.623Z,93.10
2022-08-18T09:15:08.909Z,91.10
2022-08-18T09:18:10.829Z,92.50
2022-08-18T09:20:49.542Z,91.30
2022-08-18T09:23:42.571Z,92.20
2022-08-18T09:26:39.272Z,91.70
2022-08-18T09:29:46.543Z,90.20
2022-08-18T09:32:24.104Z,89.30
2022-08-18T09:35:40.017Z,90.00
2022-08-18T09:38:41.313Z,89.50
2022-08-18T09:41:32.954Z,91.10
2022-08-18T09:44:21.681Z,90.80
2022-08-18T09:46:57.406Z,90.20
2022-08-18T09:49:28.003Z,90.60
2022-08-18T09:51:58.352Z,90.40
2022-08-18T09:54:33.932Z,88.30
2022-08-18T09:57:06.218Z,90.00
2022-08-18T09:59:34.345Z,89.20
2022-08-18T10:02:32.440Z,89.30
2022-08-18T10:05:21.270Z,88.90
2022-08-18T10:08:07.755Z,88.00
2022-08-18T10:11:10.264Z,86.40
2022-08-18T10:14:23.417Z,84.80
2022-08-18T10:17:44.611Z,88.00
2022-08-18T10:20:34.792Z,87.70
2022-08-18T10:23:04.432Z,87.90
2022-08-18T10:25:47.854Z,84.50
2022-08-18T10:28:55.873Z,86.90
2022-08-18T10:31:27.421Z,84.50
2022-08-18T10:34:16.374Z,86.20
2022-08-18T10:36:53.329Z,86.30
2022-08-18T10:39:45.422Z,86.30
2022-08-18T10:42:22.512Z,84.70
2022-08-18T10:45:02.378Z,84.00
2022-08-18T10:47:34.268Z,86.00
2022-08-18T10:50:09.705Z,83.40
2022-08-18T10:56:33.029Z,83.70
2022-08-18T11:00:02.013Z,84.80
2022-08-18T11:05:45.012Z,82.50
2022-08-18T11:08:20.687Z,83.60
2022-08-18T11:11:27.778Z,83.80
2022-08-18T11:14:15.675Z,84.40
2022-08-18T11:17:02.243Z,84.30
2022-08-18T11:19:42.031Z,83.50
2022-08-18T11:22:31.565Z,80.50
2022-08-18T11:25:03.337Z,82.90
2022-08-18T11:27:35.852Z,82.10
2022-08-18T11:30:06.728Z,84.30
2022-08-18T11:35:51.685Z,83.40
2022-08-18T11:38:23.305Z,81.90
2022-08-18T11:41:11.760Z,82.90
2022-08-18T11:43:43.065Z,83.10
2022-08-18T11:46:41.552Z,82.30
2022-08-18T11:49:23.998Z,81.40
2022-08-18T11:52:26.075Z,81.40
2022-08-18T11:55:16.938Z,77.30
2022-08-18T12:00:48.766Z,81.30
2022-08-18T12:03:41.673Z,79.30
2022-08-18T12:06:23.592Z,81.50
2022-08-18T12:09:45.489Z,82.20
2022-08-18T12:12:30.546Z,82.10
2022-08-18T12:15:17.464Z,82.30
2022-08-18T12:20:37.541Z,83.40
2022-08-18T12:23:07.011Z,82.60
2022-08-18T12:25:34.016Z,81.90
2022-08-18T12:28:02.515Z,81.50
2022-08-18T12:30:29.731Z,80.10
2022-08-18T12:33:05.627Z,81.00
2022-08-18T12:35:37.587Z,83.50
2022-08-18T12:38:12.544Z,81.30
2022-08-18T12:40:42.203Z,81.90
2022-08-18T12:43:10.532Z,83.90
2022-08-18T12:45:39.127Z,84.00
2022-08-18T12:48:07.711Z,82.80
2022-08-18T12:50:49.650Z,80.70
2022-08-18T12:53:29.062Z,81.20
2022-08-18T12:55:58.318Z,82.90
2022-08-18T12:58:25.823Z,80.70
2022-08-18T13:00:52.970Z,81.40
2022-08-18T13:03:20.567Z,81.80
2022-08-18T13:05:48.082Z,84.30
2022-08-18T13:08:30.127Z,81.10
2022-08-18T13:11:00.423Z,83.80
2022-08-18T13:13:42.959Z,80.70
2022-08-18T13:16:16.230Z,81.90
2022-08-18T13:18:45.334Z,83.70
2022-08-18T13:21:18.021Z,81.00
2022-08-18T13:23:45.578Z,81.30
2022-08-18T13:26:28.394Z,81.90
2022-08-18T13:28:59.271Z,83.80
2022-08-18T13:31:27.458Z,81.80
2022-08-18T13:34:04.120Z,82.50
2022-08-18T13:36:44.446Z,84.20
2022-08-18T13:39:17.204Z,83.00
2022-08-18T13:41:46.318Z,82.00
2022-08-18T13:44:18.585Z,83.80
2022-08-18T13:46:48.458Z,83.50
2022-08-18T13:49:23.827Z,84.80
2022-08-18T13:52:01.016Z,82.00
2022-08-18T13:54:34.094Z,84.00
2022-08-18T13:57:04.887Z,82.90
2022-08-18T13:59:34.253Z,82.80
2022-08-18T14:02:08.384Z,82.00
2022-08-18T14:04:38.620Z,81.20
2022-08-18T14:07:10.509Z,78.10
2022-08-18T14:09:39.410Z,80.70
2022-08-18T14:12:28.243Z,82.00
2022-08-18T14:14:58.493Z,80.40
2022-08-18T14:17:26.834Z,81.70
2022-08-18T14:20:15.353Z,78.70
2022-08-18T14:23:21.786Z,82.40
2022-08-18T14:26:13.808Z,80.70
2022-08-18T14:28:41.587Z,82.20
2022-08-18T14:31:09.068Z,83.00
2022-08-18T14:33:50.326Z,82.80
2022-08-18T14:36:20.527Z,81.00
2022-08-18T14:38:59.319Z,80.40
2022-08-18T14:41:27.397Z,83.10
2022-08-18T14:44:12.999Z,82.00
2022-08-18T14:46:52.288Z,81.90
2022-08-18T14:49:28.660Z,80.90
2022-08-18T14:51:59.531Z,80.50
2022-08-18T14:54:30.139Z,79.70
2022-08-18T14:57:02.646Z,81.00
2022-08-18T14:59:30.946Z,82.80
2022-08-18T15:02:07.685Z,82.20
2022-08-18T15:04:52.953Z,81.40
2022-08-18T15:07:25.797Z,80.10
2022-08-18T15:10:15.051Z,80.90
2022-08-18T15:12:41.136Z,82.00
2022-08-18T15:15:13.022Z,83.20
2022-08-18T15:17:52.440Z,81.40
2022-08-18T15:20:29.633Z,82.40
2022-08-18T15:23:27.972Z,83.20
2022-08-18T15:25:56.684Z,84.90
2022-08-18T15:28:27.867Z,82.40
2022-08-18T15:33:42.772Z,83.70
2022-08-18T15:36:10.557Z,83.60
2022-08-18T15:38:43.908Z,84.20
2022-08-18T15:41:31.397Z,84.50
2022-08-18T15:43:59.195Z,84.50
2022-08-18T15:46:27.037Z,84.00
2022-08-18T15:48:55.774Z,81.80
2022-08-18T15:51:23.212Z,84.40
2022-08-18T15:53:50.925Z,84.00
2022-08-18T15:56:22.822Z,83.40
2022-08-18T15:58:53.604Z,80.70
2022-08-18T16:01:30.336Z,83.00
2022-08-18T16:04:01.369Z,81.40
2022-08-18T16:06:32.483Z,82.20
2022-08-18T16:09:01.505Z,83.30
2022-08-18T16:11:29.978Z,83.80
2022-08-18T16:14:02.471Z,85.70
2022-08-18T16:16:35.807Z,86.10
2022-08-18T16:19:08.398Z,85.00
2022-08-18T16:21:39.862Z,85.30
2022-08-18T16:24:08.205Z,86.50
2022-08-18T16:26:35.549Z,87.00
2022-08-18T16:29:03.479Z,85.70
2022-08-18T16:31:30.583Z,86.00
2022-08-18T16:33:58.270Z,85.20
2022-08-18T16:36:26.406Z,85.10
2022-08-18T16:38:58.113Z,84.40
2022-08-18T16:41:26.681Z,85.30
2022-08-18T16:43:54.585Z,85.80
2022-08-18T16:46:26.957Z,85.90
2022-08-18T16:48:57.335Z,85.70
2022-08-18T16:51:27.947Z,85.60
2022-08-18T16:53:55.482Z,85.10
2022-08-18T16:56:27.658Z,84.30
2022-08-18T16:59:14.974Z,85.10
2022-08-18T17:02:02.030Z,85.30
2022-08-18T17:04:35.293Z,84.90
2022-08-18T17:07:05.401Z,85.20
2022-08-18T17:09:34.314Z,85.40
2022-08-18T17:12:02.521Z,85.00
2022-08-18T17:14:32.548Z,85.70
2022-08-18T17:17:00.669Z,85.00
2022-08-18T17:19:33.664Z,86.10
2022-08-18T17:22:05.089Z,86.80
2022-08-18T17:24:33.151Z,86.10
2022-08-18T17:27:26.095Z,86.70
2022-08-18T17:30:16.072Z,87.00
2022-08-18T17:33:05.863Z,87.40
2022-08-18T17:35:46.258Z,88.30
2022-08-18T17:38:40.427Z,88.60
2022-08-18T17:41:07.897Z,88.90
2022-08-18T17:46:30.537Z,87.70
2022-08-18T17:49:16.141Z,88.10
2022-08-18T17:51:52.463Z,88.50
2022-08-18T17:54:49.413Z,88.30
2022-08-18T17:57:32.611Z,88.00
2022-08-18T18:00:11.301Z,87.80
2022-08-18T18:02:46.451Z,87.90
2022-08-18T18:05:19.139Z,88.00
2022-08-18T18:07:52.488Z,87.70
2022-08-18T18:11:04.484Z,87.70
2022-08-18T18:13:33.130Z,87.80
2022-08-18T18:16:21.223Z,88.30
2022-08-18T18:19:03.304Z,88.20
2022-08-18T18:22:00.393Z,88.20
2022-08-18T18:24:34.425Z,88.40
2022-08-18T18:27:02.448Z,88.40
2022-08-18T18:29:37.698Z,88.60
2022-08-18T18:33:13.485Z,89.30
2022-08-18T18:35:50.082Z,89.30
2022-08-18T18:38:24.319Z,89.40
2022-08-18T18:41:03.869Z,89.10
2022-08-18T18:43:39.350Z,89.10
2022-08-18T18:46:22.852Z,89.10
2022-08-18T18:49:19.088Z,89.20
2022-08-18T18:52:02.684Z,89.30
2022-08-18T18:54:49.647Z,89.50
2022-08-18T18:57:30.077Z,89.50
2022-08-18T19:00:18.346Z,89.60
2022-08-18T19:03:09.314Z,89.90
2022-08-18T19:06:14.035Z,90.00
2022-08-18T19:09:05.912Z,90.00
2022-08-18T19:11:47.845Z,90.20
2022-08-18T19:14:21.888Z,90.20
2022-08-18T19:17:14.825Z,90.30
2022-08-18T19:19:50.039Z,90.30
2022-08-18T19:22:34.340Z,90.40
2022-08-18T19:25:19.238Z,90.70
2022-08-18T19:28:28.658Z,91.00
2022-08-18T19:31:00.217Z,90.90
2022-08-18T19:33:41.798Z,91.00
2022-08-18T19:36:28.207Z,91.10
2022-08-18T19:39:26.017Z,91.20
2022-08-18T19:42:15.225Z,91.40
2022-08-18T19:45:15.483Z,92.50
2022-08-18T19:48:18.229Z,93.70
2022-08-18T19:51:05.422Z,93.40
2022-08-18T19:53:52.650Z,93.20
2022-08-18T19:56:56.305Z,93.80
2022-08-18T19:59:57.631Z,93.70
2022-08-18T20:02:48.994Z,93.70
2022-08-18T20:06:36.084Z,94.20
2022-08-18T20:09:42.139Z,94.00
2022-08-18T20:12:20.800Z,93.40
2022-08-18T20:15:16.514Z,92.90
2022-08-18T20:18:04.626Z,92.50
2022-08-18T20:20:38.129Z,92.30
2022-08-18T20:23:33.383Z,92.20
2022-08-18T20:26:00.834Z,92.10
2022-08-18T20:28:39.911Z,92.00
2022-08-18T20:31:14.154Z,91.90
2022-08-18T20:34:14.394Z,92.00
2022-08-18T20:36:45.338Z,92.10
2022-08-18T20:39:40.820Z,92.30
2022-08-18T20:42:37.766Z,92.40
2022-08-18T20:45:29.418Z,92.60
2022-08-18T20:48:29.580Z,93.10
2022-08-18T20:51:15.625Z,93.00
2022-08-18T20:53:52.420Z,93.70
2022-08-18T20:56:43.606Z,94.70
2022-08-18T20:59:32.373Z,94.00
2022-08-18T21:02:22.955Z,94.10
